createdAt,value
2019-01-24T00:00:55.047Z,52.13
2019-01-24T00:03:25.701Z,52.43
2019-01-24T00:05:56.765Z,52.00
2019-01-24T00:08:27.462Z,54.13
2019-01-24T00:10:58.151Z,55.77
2019-01-24T00:13:28.739Z,51.47
2019-01-24T00:15:59.804Z,53.40
2019-01-24T00:18:30.962Z,51.70
2019-01-24T00:21:01.813Z,54.00
2019-01-24T00:23:32.547Z,55.73
2019-01-24T00:26:03.523Z,53.90
2019-01-24T00:28:34.431Z,59.10
2019-01-24T00:31:05.160Z,58.00
2019-01-24T00:33:36.099Z,57.10
2019-01-24T00:36:06.854Z,55.00
2019-01-24T00:38:37.937Z,53.77
2019-01-24T00:41:08.639Z,53.60
2019-01-24T00:43:39.770Z,55.40
2019-01-24T00:46:10.610Z,57.07
2019-01-24T00:48:41.270Z,55.07
2019-01-24T00:51:11.997Z,57.70
2019-01-24T00:53:42.722Z,57.10
2019-01-24T00:56:13.622Z,57.00
2019-01-24T00:58:44.726Z,57.70
2019-01-24T01:01:15.310Z,57.27
2019-01-24T01:03:46.250Z,57.57
2019-01-24T01:06:16.848Z,58.80
2019-01-24T01:08:47.762Z,56.30
2019-01-24T01:11:18.713Z,56.80
2019-01-24T01:13:49.508Z,59.10
2019-01-24T01:16:20.437Z,64.30
2019-01-24T01:18:51.254Z,60.63
2019-01-24T01:21:23.722Z,60.10
2019-01-24T01:23:54.346Z,58.93
2019-01-24T01:26:24.900Z,58.00
2019-01-24T01:28:55.433Z,58.30
2019-01-24T01:31:26.005Z,56.57
2019-01-24T01:33:56.760Z,60.03
2019-01-24T01:36:27.442Z,58.00
2019-01-24T01:38:58.504Z,56.87
2019-01-24T01:41:29.216Z,60.37
2019-01-24T01:44:00.098Z,57.20
2019-01-24T01:46:30.808Z,62.67
2019-01-24T01:49:01.961Z,55.23
2019-01-24T01:51:32.716Z,55.07
2019-01-24T01:54:03.588Z,63.17
2019-01-24T01:56:34.666Z,59.93
2019-01-24T01:59:05.605Z,60.23
2019-01-24T02:01:36.321Z,59.80
2019-01-24T02:04:06.971Z,60.57
2019-01-24T02:06:37.676Z,64.70
2019-01-24T02:09:09.970Z,59.50
2019-01-24T02:11:40.853Z,61.27
2019-01-24T02:14:11.460Z,59.00
2019-01-24T02:16:42.132Z,61.77
2019-01-24T02:19:14.711Z,65.70
2019-01-24T02:21:46.363Z,60.77
2019-01-24T02:24:17.348Z,57.13
2019-01-24T02:26:48.097Z,63.50
2019-01-24T02:29:18.773Z,60.63
2019-01-24T02:31:49.580Z,61.63
2019-01-24T02:34:20.446Z,65.20
2019-01-24T02:36:51.140Z,66.50
2019-01-24T02:39:21.808Z,61.47
2019-01-24T02:41:52.443Z,62.53
2019-01-24T02:44:23.581Z,62.27
2019-01-24T02:46:54.274Z,64.83
2019-01-24T02:49:25.054Z,64.17
2019-01-24T02:51:56.337Z,61.13
2019-01-24T02:54:27.237Z,67.27
2019-01-24T02:56:58.414Z,65.50
2019-01-24T02:59:29.110Z,73.40
2019-01-24T03:01:59.716Z,68.00
2019-01-24T03:04:30.612Z,62.70
2019-01-24T03:07:01.559Z,62.13
2019-01-24T03:09:32.357Z,64.63
2019-01-24T03:12:03.636Z,67.27
2019-01-24T03:14:34.412Z,69.80
2019-01-24T03:17:05.098Z,66.23
2019-01-24T03:19:35.861Z,64.80
2019-01-24T03:22:06.986Z,67.87
2019-01-24T03:24:37.741Z,66.10
2019-01-24T03:27:08.508Z,65.93
2019-01-24T03:29:39.593Z,63.50
2019-01-24T03:32:10.104Z,61.63
2019-01-24T03:34:40.977Z,63.63
2019-01-24T03:37:11.998Z,63.87
2019-01-24T03:39:42.740Z,64.80
2019-01-24T03:42:13.346Z,69.93
2019-01-24T03:44:44.030Z,65.20
2019-01-24T03:47:14.889Z,62.00
2019-01-24T03:49:45.479Z,62.60
2019-01-24T03:52:16.371Z,73.40
2019-01-24T03:54:47.355Z,65.00
2019-01-24T03:57:18.617Z,65.23
2019-01-24T03:59:49.617Z,63.87
2019-01-24T04:02:20.383Z,65.07
2019-01-24T04:04:51.256Z,65.47
2019-01-24T04:07:22.289Z,64.97
2019-01-24T04:09:53.142Z,65.03
2019-01-24T04:12:24.054Z,59.30
2019-01-24T04:14:55.043Z,62.60
2019-01-24T04:17:25.799Z,62.20
2019-01-24T04:19:56.441Z,61.17
2019-01-24T04:22:27.107Z,61.20
2019-01-24T04:24:58.182Z,57.97
2019-01-24T04:27:28.784Z,56.37
2019-01-24T04:29:59.377Z,56.40
2019-01-24T04:32:30.383Z,58.10
2019-01-24T04:35:01.423Z,57.80
2019-01-24T04:37:32.461Z,56.73
2019-01-24T04:40:03.431Z,61.07
2019-01-24T04:42:34.227Z,61.77
2019-01-24T04:45:06.649Z,57.70
2019-01-24T04:47:37.647Z,63.50
2019-01-24T04:50:10.992Z,57.93
2019-01-24T04:52:41.983Z,60.60
2019-01-24T04:55:14.468Z,55.83
2019-01-24T04:57:45.252Z,59.40
2019-01-24T05:00:19.190Z,61.47
2019-01-24T05:02:49.863Z,56.80
2019-01-24T05:05:27.195Z,57.97
2019-01-24T05:07:53.146Z,62.07
2019-01-24T05:10:23.914Z,57.10
2019-01-24T05:12:54.884Z,58.00
2019-01-24T05:15:25.959Z,59.47
2019-01-24T05:17:56.654Z,58.00
2019-01-24T05:20:27.347Z,58.03
2019-01-24T05:22:58.031Z,57.00
2019-01-24T05:25:29.106Z,58.33
2019-01-24T05:28:01.401Z,59.60
2019-01-24T05:30:32.069Z,56.30
2019-01-24T05:33:03.173Z,52.70
2019-01-24T05:35:34.990Z,55.10
2019-01-24T05:38:05.845Z,54.33
2019-01-24T05:40:36.654Z,57.37
2019-01-24T05:43:07.371Z,58.20
2019-01-24T05:45:38.158Z,58.63
2019-01-24T05:48:09.036Z,56.57
2019-01-24T05:50:40.122Z,55.90
2019-01-24T05:53:10.717Z,58.53
2019-01-24T05:55:41.790Z,55.07
2019-01-24T05:58:12.389Z,55.87
2019-01-24T06:00:46.660Z,59.07
2019-01-24T06:03:19.910Z,91.77
2019-01-24T06:05:51.273Z,77.70
2019-01-24T06:08:21.940Z,73.77
2019-01-24T06:10:52.700Z,73.00
2019-01-24T06:13:23.238Z,71.30
2019-01-24T06:15:53.984Z,64.43
2019-01-24T06:18:25.046Z,69.73
2019-01-24T06:20:55.642Z,66.47
2019-01-24T06:23:26.345Z,68.00
2019-01-24T06:25:57.118Z,65.47
2019-01-24T06:28:28.182Z,64.63
2019-01-24T06:30:58.825Z,60.67
2019-01-24T06:33:29.759Z,64.77
2019-01-24T06:36:00.463Z,59.03
2019-01-24T06:38:31.537Z,64.10
2019-01-24T06:41:02.673Z,60.33
2019-01-24T06:43:33.434Z,58.40
2019-01-24T06:46:04.550Z,61.03
2019-01-24T06:48:35.797Z,57.33
2019-01-24T06:51:06.837Z,59.73
2019-01-24T06:53:37.393Z,61.97
2019-01-24T06:56:08.342Z,58.90
2019-01-24T06:58:38.983Z,62.00
2019-01-24T07:01:09.778Z,57.47
2019-01-24T07:03:40.913Z,54.20
2019-01-24T07:06:11.417Z,51.83
2019-01-24T07:08:42.133Z,58.20
2019-01-24T07:11:13.111Z,54.00
2019-01-24T07:13:43.769Z,55.80
2019-01-24T07:16:14.821Z,49.47
2019-01-24T07:18:45.541Z,53.13
2019-01-24T07:21:16.455Z,51.20
2019-01-24T07:23:47.401Z,53.07
2019-01-24T07:26:18.348Z,52.67
2019-01-24T07:28:48.923Z,46.90
2019-01-24T07:31:20.006Z,51.53
2019-01-24T07:33:50.691Z,46.53
2019-01-24T07:36:21.401Z,48.83
2019-01-24T07:38:52.019Z,45.97
2019-01-24T07:41:22.943Z,47.30
2019-01-24T07:43:54.082Z,47.00
2019-01-24T07:46:24.771Z,47.67
2019-01-24T07:48:55.478Z,50.27
2019-01-24T07:51:26.256Z,45.83
2019-01-24T07:53:57.134Z,48.90
2019-01-24T07:56:28.264Z,48.53
2019-01-24T07:58:59.014Z,43.80
2019-01-24T08:01:30.035Z,47.37
2019-01-24T08:04:00.697Z,44.77
2019-01-24T08:06:31.807Z,46.27
2019-01-24T08:09:02.496Z,43.23
2019-01-24T08:11:33.383Z,42.47
2019-01-24T08:14:04.435Z,44.70
2019-01-24T08:16:35.188Z,42.90
2019-01-24T08:19:06.084Z,43.90
2019-01-24T08:21:36.852Z,41.47
2019-01-24T08:24:07.749Z,42.87
2019-01-24T08:26:38.796Z,43.43
2019-01-24T08:29:09.782Z,43.10
2019-01-24T08:31:40.669Z,43.43
2019-01-24T08:34:11.451Z,40.33
2019-01-24T08:36:42.302Z,41.37
2019-01-24T08:39:13.006Z,38.80
2019-01-24T08:41:43.920Z,41.47
2019-01-24T08:44:14.727Z,39.10
2019-01-24T08:46:45.560Z,39.30
2019-01-24T08:49:16.633Z,40.50
2019-01-24T08:51:47.240Z,40.43
2019-01-24T08:54:18.298Z,37.73
2019-01-24T08:56:48.936Z,37.83
2019-01-24T08:59:20.865Z,38.30
2019-01-24T09:01:52.459Z,35.70
2019-01-24T09:04:23.823Z,35.30
2019-01-24T09:06:54.866Z,36.20
2019-01-24T09:09:25.546Z,38.93
2019-01-24T09:11:56.496Z,40.57
2019-01-24T09:14:27.585Z,37.27
2019-01-24T09:16:58.372Z,38.33
2019-01-24T09:19:29.370Z,37.90
2019-01-24T09:21:59.989Z,40.03
2019-01-24T09:24:30.667Z,40.30
2019-01-24T09:27:01.365Z,39.17
2019-01-24T09:29:32.122Z,37.70
2019-01-24T09:32:03.304Z,36.50
2019-01-24T09:34:33.994Z,37.80
2019-01-24T09:37:04.805Z,37.90
2019-01-24T09:39:35.664Z,39.90
2019-01-24T09:42:06.359Z,38.67
2019-01-24T09:44:37.278Z,41.43
2019-01-24T09:47:08.132Z,36.07
2019-01-24T09:49:38.836Z,40.07
2019-01-24T09:52:09.880Z,35.27
2019-01-24T09:54:40.441Z,37.83
2019-01-24T09:57:11.424Z,38.53
2019-01-24T09:59:42.493Z,41.20
2019-01-24T10:02:13.188Z,36.17
2019-01-24T10:04:43.885Z,37.40
2019-01-24T10:07:14.551Z,40.00
2019-01-24T10:09:45.341Z,36.13
2019-01-24T10:12:16.389Z,38.20
2019-01-24T10:14:46.912Z,38.40
2019-01-24T10:17:20.073Z,37.60
2019-01-24T10:19:51.645Z,35.37
2019-01-24T10:22:22.786Z,38.57
2019-01-24T10:24:53.627Z,37.33
2019-01-24T10:27:24.310Z,35.70
2019-01-24T10:29:55.388Z,36.20
2019-01-24T10:32:26.329Z,35.33
2019-01-24T10:34:56.932Z,36.33
2019-01-24T10:37:28.008Z,36.07
2019-01-24T10:39:58.693Z,34.50
2019-01-24T10:42:29.516Z,36.77
2019-01-24T10:45:00.370Z,35.20
2019-01-24T10:47:31.551Z,37.37
2019-01-24T10:50:02.498Z,37.20
2019-01-24T10:52:33.434Z,35.73
2019-01-24T10:55:05.067Z,35.60
2019-01-24T10:57:35.746Z,34.17
2019-01-24T11:00:09.377Z,33.90
2019-01-24T11:02:40.114Z,32.33
2019-01-24T11:05:13.596Z,32.67
2019-01-24T11:07:44.395Z,37.60
2019-01-24T11:10:17.604Z,33.87
2019-01-24T11:12:48.755Z,36.60
2019-01-24T11:15:24.372Z,36.20
2019-01-24T11:17:55.183Z,34.30
2019-01-24T11:20:26.082Z,31.97
2019-01-24T11:22:57.283Z,33.33
2019-01-24T11:25:28.246Z,33.83
2019-01-24T11:27:59.486Z,33.17
2019-01-24T11:30:31.544Z,35.40
2019-01-24T11:33:02.546Z,34.80
2019-01-24T11:35:35.194Z,31.53
2019-01-24T11:38:07.087Z,33.47
2019-01-24T11:40:40.886Z,35.60
2019-01-24T11:43:11.672Z,35.37
2019-01-24T11:45:42.664Z,32.87
2019-01-24T11:48:13.324Z,33.13
2019-01-24T11:50:44.033Z,31.47
2019-01-24T11:53:15.005Z,33.73
2019-01-24T11:55:45.937Z,34.03
2019-01-24T11:58:16.907Z,32.20
2019-01-24T12:00:49.504Z,35.60
2019-01-24T12:03:20.194Z,34.47
2019-01-24T12:05:50.881Z,34.47
2019-01-24T12:08:21.634Z,32.83
2019-01-24T12:10:52.609Z,32.43
2019-01-24T12:13:23.283Z,37.20
2019-01-24T12:15:53.963Z,33.90
2019-01-24T12:18:25.291Z,33.90
2019-01-24T12:20:56.467Z,31.80
2019-01-24T12:23:27.588Z,33.33
2019-01-24T12:25:58.767Z,34.40
2019-01-24T12:28:29.657Z,35.03
2019-01-24T12:31:00.443Z,34.97
2019-01-24T12:33:31.454Z,35.90
2019-01-24T12:36:02.257Z,37.27
2019-01-24T12:38:33.141Z,36.50
2019-01-24T12:41:04.257Z,35.83
2019-01-24T12:43:35.223Z,36.37
2019-01-24T12:46:06.236Z,35.50
2019-01-24T12:48:37.251Z,34.43
2019-01-24T12:51:08.444Z,33.90
2019-01-24T12:53:39.178Z,34.37
2019-01-24T12:56:09.818Z,34.57
2019-01-24T12:58:40.930Z,37.40
2019-01-24T13:01:11.567Z,34.53
2019-01-24T13:03:42.502Z,34.20
2019-01-24T13:06:13.211Z,37.13
2019-01-24T13:08:44.089Z,34.30
2019-01-24T13:11:15.208Z,34.87
2019-01-24T13:13:46.077Z,34.40
2019-01-24T13:16:16.942Z,32.13
2019-01-24T13:18:47.742Z,35.67
2019-01-24T13:21:20.296Z,34.40
2019-01-24T13:23:51.108Z,34.97
2019-01-24T13:26:21.999Z,34.27
2019-01-24T13:28:52.864Z,36.47
2019-01-24T13:31:23.340Z,36.07
2019-01-24T13:33:54.260Z,35.13
2019-01-24T13:36:25.210Z,36.13
2019-01-24T13:38:56.549Z,34.20
2019-01-24T13:41:27.705Z,35.10
2019-01-24T13:43:58.839Z,33.70
2019-01-24T13:46:29.554Z,35.73
2019-01-24T13:49:00.491Z,35.20
2019-01-24T13:51:31.541Z,34.80
2019-01-24T13:54:02.372Z,35.30
2019-01-24T13:56:33.333Z,34.20
2019-01-24T13:59:04.374Z,35.50
2019-01-24T14:01:35.405Z,35.00
2019-01-24T14:04:08.671Z,35.37
2019-01-24T14:06:39.459Z,36.33
2019-01-24T14:09:10.546Z,34.03
2019-01-24T14:11:41.332Z,36.60
2019-01-24T14:14:12.017Z,36.97
2019-01-24T14:16:43.192Z,37.37
2019-01-24T14:19:15.924Z,37.03
2019-01-24T14:21:46.732Z,33.63
2019-01-24T14:24:17.746Z,37.83
2019-01-24T14:26:48.893Z,35.27
2019-01-24T14:29:19.798Z,34.57
2019-01-24T14:31:50.581Z,36.90
2019-01-24T14:34:21.378Z,35.03
2019-01-24T14:36:52.441Z,35.07
2019-01-24T14:39:23.339Z,36.10
2019-01-24T14:41:54.091Z,37.33
2019-01-24T14:44:24.637Z,37.73
2019-01-24T14:46:55.196Z,35.97
2019-01-24T14:49:26.565Z,34.77
2019-01-24T14:51:57.779Z,37.93
2019-01-24T14:54:28.553Z,35.80
2019-01-24T14:56:59.495Z,35.10
2019-01-24T14:59:30.470Z,32.90
2019-01-24T15:02:01.071Z,36.47
2019-01-24T15:04:32.370Z,35.07
2019-01-24T15:07:03.101Z,32.63
2019-01-24T15:09:34.317Z,32.87
2019-01-24T15:12:05.149Z,37.73
2019-01-24T15:14:36.013Z,35.80
2019-01-24T15:17:08.246Z,33.90
2019-01-24T15:19:39.219Z,34.00
2019-01-24T15:22:10.348Z,37.37
2019-01-24T15:24:41.061Z,33.43
2019-01-24T15:27:11.956Z,35.80
2019-01-24T15:29:42.742Z,36.07
2019-01-24T15:32:13.637Z,34.80
2019-01-24T15:34:44.611Z,34.27
2019-01-24T15:37:16.106Z,36.03
2019-01-24T15:39:47.292Z,34.03
2019-01-24T15:42:17.935Z,36.40
2019-01-24T15:44:49.029Z,37.10
2019-01-24T15:47:19.897Z,36.40
2019-01-24T15:49:50.698Z,38.80
2019-01-24T15:52:21.581Z,34.50
2019-01-24T15:54:52.560Z,35.10
2019-01-24T15:57:23.711Z,39.90
2019-01-24T15:59:54.608Z,35.90
2019-01-24T16:02:25.499Z,33.63
2019-01-24T16:04:56.261Z,39.90
2019-01-24T16:07:29.248Z,36.63
2019-01-24T16:10:00.400Z,38.43
2019-01-24T16:12:31.283Z,39.30
2019-01-24T16:15:07.633Z,37.07
2019-01-24T16:17:38.519Z,38.67
2019-01-24T16:20:12.064Z,38.13
2019-01-24T16:22:43.324Z,35.30
2019-01-24T16:25:16.769Z,34.30
2019-01-24T16:27:47.640Z,35.77
2019-01-24T16:30:23.773Z,35.73
2019-01-24T16:32:54.851Z,37.20
2019-01-24T16:35:26.007Z,37.70
2019-01-24T16:37:56.746Z,36.00
2019-01-24T16:40:29.764Z,35.70
2019-01-24T16:43:00.682Z,35.03
2019-01-24T16:45:31.652Z,37.40
2019-01-24T16:48:02.547Z,38.50
2019-01-24T16:50:33.493Z,37.73
2019-01-24T16:53:04.497Z,35.73
2019-01-24T16:55:35.404Z,34.87
2019-01-24T16:58:06.720Z,38.00
2019-01-24T17:00:43.856Z,36.20
2019-01-24T17:03:14.740Z,36.00
2019-01-24T17:05:45.689Z,36.10
2019-01-24T17:08:16.951Z,37.40
2019-01-24T17:10:47.695Z,35.97
2019-01-24T17:13:18.655Z,37.37
2019-01-24T17:15:49.629Z,37.57
2019-01-24T17:18:20.809Z,38.47
2019-01-24T17:20:51.669Z,36.73
2019-01-24T17:23:22.571Z,41.70
2019-01-24T17:25:53.330Z,42.97
2019-01-24T17:28:24.297Z,38.80
2019-01-24T17:30:55.272Z,41.53
2019-01-24T17:33:26.178Z,40.00
2019-01-24T17:35:57.116Z,40.50
2019-01-24T17:38:28.018Z,40.80
2019-01-24T17:40:59.025Z,36.67
2019-01-24T17:43:30.245Z,41.40
2019-01-24T17:46:01.275Z,39.37
2019-01-24T17:48:32.580Z,37.27
2019-01-24T17:51:03.569Z,34.90
2019-01-24T17:53:34.463Z,40.30
2019-01-24T17:56:05.750Z,38.90
2019-01-24T17:58:36.573Z,37.07
2019-01-24T18:01:07.583Z,39.40
2019-01-24T18:03:38.461Z,39.23
2019-01-24T18:06:09.359Z,40.13
2019-01-24T18:08:40.383Z,39.53
2019-01-24T18:11:11.233Z,37.77
2019-01-24T18:13:42.426Z,36.90
2019-01-24T18:16:13.344Z,35.40
2019-01-24T18:18:44.503Z,37.00
2019-01-24T18:21:15.415Z,38.60
2019-01-24T18:23:46.338Z,38.23
2019-01-24T18:26:17.169Z,36.73
2019-01-24T18:28:47.984Z,36.20
2019-01-24T18:31:18.698Z,33.67
2019-01-24T18:33:49.499Z,38.97
2019-01-24T18:36:20.207Z,37.77
2019-01-24T18:38:51.005Z,36.70
2019-01-24T18:41:21.793Z,37.53
2019-01-24T18:43:52.728Z,36.50
2019-01-24T18:46:23.406Z,36.93
2019-01-24T18:48:54.301Z,38.27
2019-01-24T18:51:25.086Z,37.47
2019-01-24T18:53:55.875Z,38.43
2019-01-24T18:56:26.821Z,37.40
2019-01-24T18:58:57.810Z,38.47
2019-01-24T19:01:28.919Z,38.47
2019-01-24T19:03:59.851Z,34.13
2019-01-24T19:06:30.740Z,36.07
2019-01-24T19:09:01.492Z,37.93
2019-01-24T19:11:32.376Z,35.80
2019-01-24T19:14:03.156Z,34.50
2019-01-24T19:16:33.998Z,38.20
2019-01-24T19:19:04.792Z,35.60
2019-01-24T19:21:35.564Z,35.80
2019-01-24T19:24:06.291Z,37.20
2019-01-24T19:26:37.368Z,35.67
2019-01-24T19:29:08.183Z,37.20
2019-01-24T19:31:39.148Z,38.07
2019-01-24T19:34:10.233Z,38.60
2019-01-24T19:36:41.288Z,37.13
2019-01-24T19:39:12.036Z,37.23
2019-01-24T19:41:43.103Z,35.60
2019-01-24T19:44:15.779Z,36.90
2019-01-24T19:46:46.287Z,36.87
2019-01-24T19:49:17.352Z,36.27
2019-01-24T19:51:48.057Z,36.50
2019-01-24T19:54:18.974Z,39.47
2019-01-24T19:56:49.967Z,37.30
2019-01-24T19:59:20.833Z,39.27
2019-01-24T20:01:51.898Z,37.70
2019-01-24T20:04:22.772Z,37.87
2019-01-24T20:06:53.839Z,39.33
2019-01-24T20:09:24.592Z,36.73
2019-01-24T20:11:55.385Z,40.63
2019-01-24T20:14:26.252Z,39.47
2019-01-24T20:16:57.267Z,37.83
2019-01-24T20:19:28.024Z,38.47
2019-01-24T20:21:59.018Z,38.07
2019-01-24T20:24:30.006Z,37.83
2019-01-24T20:27:00.704Z,40.03
2019-01-24T20:29:31.775Z,41.80
2019-01-24T20:32:02.388Z,37.67
2019-01-24T20:34:33.415Z,40.00
2019-01-24T20:37:04.572Z,38.30
2019-01-24T20:39:35.402Z,40.30
2019-01-24T20:42:06.315Z,37.87
2019-01-24T20:44:37.118Z,38.30
2019-01-24T20:47:07.915Z,35.60
2019-01-24T20:49:38.845Z,35.77
2019-01-24T20:52:09.483Z,36.87
2019-01-24T20:54:40.608Z,37.90
2019-01-24T20:57:11.361Z,38.63
2019-01-24T20:59:42.599Z,35.60
2019-01-24T21:02:13.501Z,35.40
2019-01-24T21:04:44.671Z,38.20
2019-01-24T21:07:15.389Z,35.90
2019-01-24T21:09:46.165Z,38.67
2019-01-24T21:12:17.121Z,38.83
2019-01-24T21:14:48.043Z,35.60
2019-01-24T21:17:18.993Z,36.57
2019-01-24T21:19:49.610Z,36.83
2019-01-24T21:22:20.384Z,40.90
2019-01-24T21:24:50.961Z,36.70
2019-01-24T21:27:21.755Z,37.67
2019-01-24T21:29:52.572Z,35.10
2019-01-24T21:32:23.465Z,37.43
2019-01-24T21:34:54.427Z,38.17
2019-01-24T21:37:25.236Z,34.70
2019-01-24T21:39:56.271Z,37.97
2019-01-24T21:42:26.821Z,38.63
2019-01-24T21:44:57.605Z,35.13
2019-01-24T21:47:28.718Z,39.77
2019-01-24T21:49:59.586Z,37.50
2019-01-24T21:52:30.199Z,39.60
2019-01-24T21:55:01.219Z,41.20
2019-01-24T21:57:31.936Z,40.17
2019-01-24T22:00:02.723Z,39.77
2019-01-24T22:02:33.525Z,39.93
2019-01-24T22:05:05.589Z,40.70
2019-01-24T22:07:36.596Z,39.53
2019-01-24T22:10:10.004Z,38.30
2019-01-24T22:12:40.933Z,40.40
2019-01-24T22:15:14.783Z,38.67
2019-01-24T22:17:45.765Z,40.30
2019-01-24T22:20:17.990Z,38.87
2019-01-24T22:22:48.747Z,36.43
2019-01-24T22:25:22.286Z,37.40
2019-01-24T22:27:53.166Z,37.43
2019-01-24T22:30:27.916Z,37.67
2019-01-24T22:32:58.637Z,39.50
2019-01-24T22:35:29.679Z,36.00
2019-01-24T22:38:00.766Z,37.70
2019-01-24T22:40:31.458Z,39.40
2019-01-24T22:43:02.218Z,38.60
2019-01-24T22:45:32.916Z,40.00
2019-01-24T22:48:03.895Z,39.33
2019-01-24T22:50:35.106Z,38.27
2019-01-24T22:53:06.398Z,38.27
2019-01-24T22:55:37.331Z,39.20
2019-01-24T22:58:08.370Z,39.67
2019-01-24T23:00:49.923Z,39.90
2019-01-24T23:03:36.541Z,37.80
2019-01-24T23:06:07.379Z,38.33
2019-01-24T23:08:38.040Z,42.00
2019-01-24T23:11:08.975Z,39.03
2019-01-24T23:13:39.896Z,37.30
2019-01-24T23:16:10.707Z,36.83
2019-01-24T23:18:41.632Z,37.90
2019-01-24T23:21:12.321Z,39.40
2019-01-24T23:23:43.317Z,35.03
2019-01-24T23:26:14.100Z,39.57
2019-01-24T23:28:45.192Z,38.03
2019-01-24T23:31:16.164Z,39.37
2019-01-24T23:33:47.211Z,41.17
2019-01-24T23:36:17.709Z,37.90
2019-01-24T23:38:48.381Z,37.00
2019-01-24T23:41:19.472Z,40.43
2019-01-24T23:43:50.547Z,37.90
2019-01-24T23:46:21.421Z,39.03
2019-01-24T23:48:52.140Z,40.07
2019-01-24T23:51:23.053Z,39.87
2019-01-24T23:53:53.705Z,40.17
2019-01-24T23:56:24.382Z,39.40
2019-01-24T23:58:55.066Z,40.23
